Time;durP1;ratioP1;P1;durP2;ratioP2;P2;SDS_P1;SDS_P2;PMS_P1;PMS_P2;Temp;Humidity;BMP_temperature;BMP_pressure;BME280_temperature;BME280_humidity;BME280_pressure;Samples;Min_cycle;Max_cycle;Signal;HPM_P1;HPM_P2
2022/09/22 00:00:20;;;;;;;8.35;6.20;;;11.80;99.90;;;;;;4993533;28;20394;-55
2022/09/22 00:03:07;;;;;;;8.68;6.10;;;11.80;99.90;;;;;;4993282;28;20029;-54
2022/09/22 00:06:14;;;;;;;8.57;6.28;;;11.80;99.90;;;;;;5012662;28;20038;-49
2022/09/22 00:09:01;;;;;;;11.27;6.47;;;11.80;99.90;;;;;;5012929;28;20052;-50
2022/09/22 00:11:49;;;;;;;8.20;6.00;;;11.80;99.90;;;;;;4993301;28;20041;-50
2022/09/22 00:14:35;;;;;;;9.63;6.22;;;11.80;99.90;;;;;;4993371;28;20140;-50
2022/09/22 00:17:22;;;;;;;45.05;26.23;;;11.70;99.90;;;;;;4992939;28;20030;-49
2022/09/22 00:20:12;;;;;;;30.55;18.40;;;11.60;99.90;;;;;;5005123;28;20077;-55
2022/09/22 00:22:58;;;;;;;38.75;24.60;;;11.60;99.90;;;;;;4992171;28;20041;-50
2022/09/22 00:25:44;;;;;;;26.27;16.83;;;11.50;99.90;;;;;;5002402;28;20022;-54
2022/09/22 00:28:31;;;;;;;18.75;10.82;;;11.50;99.90;;;;;;5011686;28;20109;-55
2022/09/22 00:31:24;;;;;;;12.20;8.52;;;11.40;99.90;;;;;;4996921;28;20030;-49
2022/09/22 00:34:16;;;;;;;11.85;6.07;;;11.30;99.90;;;;;;5008690;28;20499;-49
2022/09/22 00:37:02;;;;;;;7.88;5.53;;;11.30;99.90;;;;;;5012385;28;20573;-55
2022/09/22 00:39:48;;;;;;;8.82;5.75;;;11.30;99.90;;;;;;4997194;28;20037;-55
2022/09/22 00:42:34;;;;;;;8.18;5.93;;;11.30;99.90;;;;;;4992598;28;20041;-55
2022/09/22 00:45:20;;;;;;;6.10;5.28;;;11.20;99.90;;;;;;4992385;28;20406;-52
2022/09/22 00:48:06;;;;;;;6.93;5.28;;;11.10;99.90;;;;;;5002268;28;20026;-51
2022/09/22 00:50:54;;;;;;;8.30;5.75;;;11.10;99.90;;;;;;5006128;28;20070;-52
2022/09/22 00:53:41;;;;;;;8.55;5.30;;;11.10;99.90;;;;;;4992961;28;20030;-54
2022/09/22 00:56:33;;;;;;;6.82;5.55;;;11.10;99.90;;;;;;5002595;28;20092;-55
2022/09/22 00:59:22;;;;;;;8.63;5.97;;;11.00;99.90;;;;;;5011786;28;20449;-56
2022/09/22 01:02:09;;;;;;;7.90;5.80;;;11.00;99.90;;;;;;4998078;28;20429;-54
2022/09/22 01:04:55;;;;;;;7.53;5.47;;;11.00;99.90;;;;;;4992010;28;20233;-52
2022/09/22 01:07:43;;;;;;;9.25;5.20;;;11.10;99.90;;;;;;5009265;28;20022;-56
2022/09/22 01:10:29;;;;;;;8.23;5.57;;;11.00;99.90;;;;;;5011172;28;20036;-56
2022/09/22 01:13:36;;;;;;;6.32;4.80;;;10.90;99.90;;;;;;4992687;28;20025;-54
2022/09/22 01:16:34;;;;;;;9.30;5.68;;;10.80;99.90;;;;;;4997345;28;20519;-50
2022/09/22 01:19:38;;;;;;;8.55;5.30;;;10.80;99.90;;;;;;5011458;28;20033;-53
2022/09/22 01:22:45;;;;;;;7.20;5.93;;;10.80;99.90;;;;;;4996789;28;20052;-55
2022/09/22 01:25:59;;;;;;;9.13;5.97;;;10.80;99.90;;;;;;5005016;28;20057;-53
2022/09/22 01:29:19;;;;;;;7.57;5.28;;;10.90;99.90;;;;;;4992330;28;20034;-51
2022/09/22 01:32:19;;;;;;;10.27;5.78;;;10.80;99.90;;;;;;4999566;28;20061;-53
2022/09/22 01:35:22;;;;;;;9.48;5.32;;;10.80;99.90;;;;;;5009349;28;20037;-52
2022/09/22 01:38:21;;;;;;;6.40;5.45;;;10.80;99.90;;;;;;5011887;28;20018;-56
2022/09/22 01:41:16;;;;;;;8.93;5.72;;;10.70;99.90;;;;;;5001614;28;20038;-49
2022/09/22 01:44:08;;;;;;;7.65;5.50;;;10.70;99.90;;;;;;4991391;28;20393;-54
2022/09/22 01:47:16;;;;;;;7.15;5.20;;;10.70;99.90;;;;;;4991685;28;20038;-54
2022/09/22 01:50:13;;;;;;;8.43;6.10;;;10.70;99.90;;;;;;4997893;28;20065;-55
2022/09/22 01:53:04;;;;;;;9.93;6.07;;;10.70;99.90;;;;;;5008907;28;20021;-53
2022/09/22 01:55:57;;;;;;;6.90;5.85;;;10.80;99.90;;;;;;5011299;28;20101;-55
2022/09/22 01:58:51;;;;;;;9.77;6.18;;;10.80;99.90;;;;;;4995250;28;20026;-56
2022/09/22 02:01:48;;;;;;;8.05;5.90;;;10.70;99.90;;;;;;5003089;28;20112;-55
2022/09/22 02:04:56;;;;;;;8.20;6.18;;;10.70;99.90;;;;;;5011346;28;20172;-53
2022/09/22 02:07:47;;;;;;;7.50;5.45;;;10.70;99.90;;;;;;4992297;28;20034;-55
2022/09/22 02:10:39;;;;;;;9.88;5.65;;;10.70;99.90;;;;;;4995339;28;20030;-52
2022/09/22 02:13:25;;;;;;;6.65;5.07;;;10.70;99.90;;;;;;5007206;28;20031;-54
2022/09/22 02:16:14;;;;;;;6.50;5.22;;;10.60;99.90;;;;;;4992997;28;20037;-56
2022/09/22 02:19:07;;;;;;;6.85;5.18;;;10.60;99.90;;;;;;5013674;28;20026;-59
2022/09/22 02:21:53;;;;;;;8.05;6.15;;;10.60;99.90;;;;;;4994529;28;20030;-55
2022/09/22 02:24:44;;;;;;;9.32;6.03;;;10.60;99.90;;;;;;4996645;28;20030;-52
2022/09/22 02:27:35;;;;;;;7.30;5.47;;;10.60;99.90;;;;;;4995350;28;20105;-53
2022/09/22 02:30:21;;;;;;;8.88;5.35;;;10.50;99.90;;;;;;5009454;28;20495;-53
2022/09/22 02:33:08;;;;;;;8.20;5.60;;;10.50;99.90;;;;;;5014174;28;20105;-51
2022/09/22 02:36:04;;;;;;;8.65;5.60;;;10.50;99.90;;;;;;4994714;28;20034;-49
2022/09/22 02:39:04;;;;;;;7.30;6.05;;;10.40;99.90;;;;;;4995072;28;20022;-54
2022/09/22 02:41:56;;;;;;;8.52;5.32;;;10.40;99.90;;;;;;5012016;28;20038;-50
2022/09/22 02:44:55;;;;;;;6.10;5.18;;;10.40;99.90;;;;;;5014164;28;20509;-51
2022/09/22 02:48:04;;;;;;;7.50;5.68;;;10.50;99.90;;;;;;5011854;28;20391;-49
2022/09/22 02:50:52;;;;;;;8.48;5.97;;;10.40;99.90;;;;;;4995414;28;20085;-53
2022/09/22 02:53:38;;;;;;;7.20;5.57;;;10.40;99.90;;;;;;5003764;28;20025;-50
2022/09/22 02:56:24;;;;;;;7.68;5.30;;;10.30;99.90;;;;;;5013808;28;20113;-52
2022/09/22 02:59:10;;;;;;;8.02;5.72;;;10.30;99.90;;;;;;4994923;28;20045;-52
2022/09/22 03:01:56;;;;;;;7.55;5.07;;;10.30;99.90;;;;;;5009888;28;20493;-55
2022/09/22 03:04:42;;;;;;;8.13;5.38;;;10.30;99.90;;;;;;5013639;28;20402;-55
2022/09/22 03:07:28;;;;;;;10.60;5.75;;;10.30;99.90;;;;;;4994512;28;20038;-53
2022/09/22 03:10:14;;;;;;;7.15;5.30;;;10.30;99.90;;;;;;5004192;28;20034;-52
2022/09/22 03:13:00;;;;;;;8.45;5.40;;;10.30;99.90;;;;;;5012606;28;20030;-50
2022/09/22 03:15:46;;;;;;;6.82;5.28;;;10.20;99.90;;;;;;5011531;28;20069;-53
2022/09/22 03:18:32;;;;;;;8.57;6.07;;;10.10;99.90;;;;;;5009868;28;20022;-56
2022/09/22 03:21:18;;;;;;;6.65;4.88;;;10.10;99.90;;;;;;5001829;28;20106;-55
2022/09/22 03:24:04;;;;;;;8.88;5.88;;;10.10;99.90;;;;;;5010361;28;20030;-54
2022/09/22 03:26:50;;;;;;;7.25;5.22;;;10.10;99.90;;;;;;5012522;28;20034;-51
2022/09/22 03:29:36;;;;;;;9.23;5.38;;;10.10;99.90;;;;;;4979933;28;20570;-52
2022/09/22 03:32:22;;;;;;;9.32;5.78;;;10.10;99.90;;;;;;5004383;28;20088;-50
2022/09/22 03:35:08;;;;;;;10.27;6.45;;;10.00;99.90;;;;;;4995136;28;20086;-52
2022/09/22 03:37:54;;;;;;;18.27;13.18;;;10.10;99.90;;;;;;5013523;28;20092;-54
2022/09/22 03:40:40;;;;;;;15.00;9.68;;;10.10;99.90;;;;;;4996546;28;20029;-54
2022/09/22 03:43:26;;;;;;;7.85;6.05;;;10.10;99.90;;;;;;5013124;28;20112;-51
2022/09/22 03:46:13;;;;;;;10.38;6.75;;;10.00;99.90;;;;;;5002852;28;20038;-53
2022/09/22 03:48:59;;;;;;;7.72;5.70;;;10.00;99.90;;;;;;4993551;28;20054;-53
2022/09/22 03:51:45;;;;;;;8.45;5.35;;;10.00;99.90;;;;;;5006656;28;20587;-54
2022/09/22 03:54:31;;;;;;;8.25;5.18;;;9.70;99.90;;;;;;5009328;28;20434;-54
2022/09/22 03:57:17;;;;;;;9.77;5.68;;;9.60;99.90;;;;;;5011134;28;20084;-56
2022/09/22 04:00:04;;;;;;;9.95;7.90;;;9.60;99.90;;;;;;5014689;28;20026;-52
2022/09/22 04:02:50;;;;;;;8.75;6.95;;;9.60;99.90;;;;;;5020179;28;20046;-54
2022/09/22 04:05:36;;;;;;;14.93;9.48;;;9.60;99.90;;;;;;5009070;28;20034;-52
2022/09/22 04:08:22;;;;;;;14.93;10.35;;;9.70;99.90;;;;;;5003907;28;20061;-52
2022/09/22 04:11:08;;;;;;;12.75;8.43;;;9.70;99.90;;;;;;5007984;28;20061;-56
2022/09/22 04:13:56;;;;;;;22.27;15.95;;;9.70;99.90;;;;;;5007304;28;20414;-52
2022/09/22 04:16:42;;;;;;;40.75;26.00;;;9.70;99.90;;;;;;5016997;28;20065;-49
2022/09/22 04:19:28;;;;;;;27.70;16.50;;;9.80;99.90;;;;;;5000597;28;20050;-53
2022/09/22 04:22:14;;;;;;;15.88;10.95;;;9.80;99.90;;;;;;4979720;28;20081;-52
2022/09/22 04:25:00;;;;;;;10.75;7.82;;;9.80;99.90;;;;;;5007358;28;20029;-54
2022/09/22 04:27:49;;;;;;;11.48;7.30;;;9.80;99.90;;;;;;5003501;28;20057;-50
2022/09/22 04:30:35;;;;;;;9.13;6.60;;;9.80;99.90;;;;;;4996126;28;20038;-54
2022/09/22 04:33:22;;;;;;;11.20;7.05;;;9.80;99.90;;;;;;5012474;28;20092;-49
2022/09/22 04:36:08;;;;;;;12.88;7.00;;;9.80;99.90;;;;;;5013315;28;20117;-49
2022/09/22 04:38:54;;;;;;;9.10;6.25;;;9.80;99.90;;;;;;5012348;28;20037;-52
2022/09/22 04:41:40;;;;;;;13.30;6.30;;;9.80;99.90;;;;;;5013122;28;20041;-59
2022/09/22 04:44:26;;;;;;;8.45;6.38;;;9.70;99.90;;;;;;5015975;28;20079;-48
2022/09/22 04:47:12;;;;;;;9.40;6.90;;;9.70;99.90;;;;;;4999539;28;20069;-48
2022/09/22 04:49:59;;;;;;;9.57;6.35;;;9.70;99.90;;;;;;4995184;28;20023;-50
2022/09/22 04:52:51;;;;;;;11.88;5.82;;;9.70;99.90;;;;;;5005245;28;20034;-53
2022/09/22 04:55:37;;;;;;;9.80;6.60;;;9.60;99.90;;;;;;5002475;28;20033;-52
2022/09/22 04:58:24;;;;;;;6.47;5.70;;;9.70;99.90;;;;;;5008240;28;20030;-48
2022/09/22 05:01:10;;;;;;;7.22;5.63;;;9.60;99.90;;;;;;5002193;28;20537;-52
2022/09/22 05:03:56;;;;;;;10.90;6.15;;;9.60;99.90;;;;;;4998443;28;20034;-55
2022/09/22 05:06:42;;;;;;;11.15;6.30;;;9.60;99.90;;;;;;4998418;28;20074;-54
2022/09/22 05:09:28;;;;;;;10.40;6.38;;;9.60;99.90;;;;;;4992046;28;20081;-56
2022/09/22 05:12:14;;;;;;;7.28;5.50;;;9.60;99.90;;;;;;5007423;28;20036;-54
2022/09/22 05:15:00;;;;;;;7.40;5.95;;;9.60;99.90;;;;;;5011390;28;20517;-54
2022/09/22 05:17:48;;;;;;;8.50;6.30;;;9.60;99.90;;;;;;5000559;28;20529;-54
2022/09/22 05:20:34;;;;;;;7.88;5.70;;;9.60;99.90;;;;;;5003887;28;20026;-55
2022/09/22 05:23:20;;;;;;;8.15;6.00;;;9.70;99.90;;;;;;4992371;28;20137;-56
2022/09/22 05:26:06;;;;;;;7.88;5.97;;;9.70;99.90;;;;;;4996365;28;20038;-54
2022/09/22 05:28:52;;;;;;;13.10;5.53;;;9.70;99.90;;;;;;5005810;28;20042;-56
2022/09/22 05:31:38;;;;;;;12.05;5.28;;;9.70;99.90;;;;;;5006541;28;20113;-55
2022/09/22 05:34:24;;;;;;;6.00;5.38;;;9.80;99.90;;;;;;5012205;28;20443;-56
2022/09/22 05:37:10;;;;;;;7.15;4.93;;;9.80;99.90;;;;;;5009917;28;20744;-54
2022/09/22 05:40:05;;;;;;;6.93;5.32;;;9.80;99.90;;;;;;5015873;28;20027;-55
2022/09/22 05:42:52;;;;;;;9.05;5.68;;;9.80;99.90;;;;;;5004286;28;20030;-55
2022/09/22 05:45:38;;;;;;;10.18;6.45;;;9.60;99.90;;;;;;5005699;28;20175;-58
2022/09/22 05:48:24;;;;;;;9.38;7.40;;;9.60;99.90;;;;;;5010163;28;20041;-54
2022/09/22 05:51:10;;;;;;;25.10;11.68;;;9.70;99.90;;;;;;4992732;28;20038;-54
2022/09/22 05:53:58;;;;;;;20.98;11.45;;;9.60;99.90;;;;;;5005361;28;20022;-58
2022/09/22 05:56:44;;;;;;;15.25;6.95;;;9.60;99.90;;;;;;5013062;28;20080;-51
2022/09/22 05:59:30;;;;;;;13.25;5.72;;;9.70;99.90;;;;;;5010095;28;20037;-58
2022/09/22 06:02:16;;;;;;;9.32;5.25;;;9.80;99.90;;;;;;5010739;28;20095;-56
2022/09/22 06:05:02;;;;;;;11.27;8.75;;;9.80;99.90;;;;;;5001710;28;20118;-54
2022/09/22 06:08:02;;;;;;;12.05;8.20;;;9.80;99.90;;;;;;5002032;28;20031;-55
2022/09/22 06:10:50;;;;;;;16.15;6.80;;;9.70;99.90;;;;;;5004621;28;20041;-56
2022/09/22 06:13:36;;;;;;;10.43;5.72;;;9.80;99.90;;;;;;4991635;28;20113;-57
2022/09/22 06:16:22;;;;;;;10.30;5.78;;;9.90;99.90;;;;;;4999256;28;20494;-58
2022/09/22 06:19:08;;;;;;;8.15;5.60;;;10.00;99.90;;;;;;4992935;28;20026;-57
2022/09/22 06:21:54;;;;;;;6.35;5.75;;;10.20;99.90;;;;;;5009833;28;20486;-57
2022/09/22 06:24:40;;;;;;;9.05;5.18;;;10.10;99.90;;;;;;4999516;28;20040;-56
2022/09/22 06:27:26;;;;;;;8.20;5.45;;;10.10;99.90;;;;;;4993146;28;20041;-56
2022/09/22 06:30:12;;;;;;;5.63;5.03;;;10.20;99.90;;;;;;4989992;28;20035;-56
2022/09/22 06:32:58;;;;;;;10.02;6.80;;;10.30;99.90;;;;;;4996027;28;20035;-55
2022/09/22 06:35:45;;;;;;;11.05;6.35;;;10.30;99.90;;;;;;4996173;28;20030;-52
2022/09/22 06:38:31;;;;;;;9.15;5.93;;;10.40;99.90;;;;;;5007249;28;20501;-57
2022/09/22 06:41:17;;;;;;;15.50;10.43;;;10.50;99.90;;;;;;4995807;28;20037;-53
2022/09/22 06:44:04;;;;;;;12.48;7.63;;;10.60;99.90;;;;;;5010502;28;20026;-51
2022/09/22 06:46:50;;;;;;;11.13;6.57;;;10.70;99.90;;;;;;4991101;28;20039;-53
2022/09/22 06:49:36;;;;;;;12.88;6.10;;;10.80;99.90;;;;;;4990942;28;20034;-53
2022/09/22 06:52:21;;;;;;;12.23;5.88;;;10.90;99.90;;;;;;4981561;28;20034;-52
2022/09/22 06:55:09;;;;;;;8.02;5.50;;;11.00;99.90;;;;;;5007642;28;20081;-58
2022/09/22 06:58:01;;;;;;;11.73;6.80;;;11.00;99.90;;;;;;5009820;28;20121;-51
2022/09/22 07:00:49;;;;;;;14.80;10.68;;;11.20;99.90;;;;;;4997754;28;20073;-55
2022/09/22 07:03:40;;;;;;;10.93;8.38;;;11.30;99.90;;;;;;5012992;28;20030;-57
2022/09/22 07:07:07;;;;;;;10.30;6.55;;;11.40;99.90;;;;;;5015161;28;20038;-54
2022/09/22 07:09:54;;;;;;;11.85;6.38;;;11.50;99.90;;;;;;5010277;28;20041;-51
2022/09/22 07:12:40;;;;;;;14.40;6.57;;;11.60;99.90;;;;;;5012858;28;20464;-53
2022/09/22 07:15:28;;;;;;;9.32;6.55;;;11.70;99.90;;;;;;5013768;28;20529;-56
2022/09/22 07:18:14;;;;;;;9.48;7.53;;;11.90;99.90;;;;;;5014012;28;20018;-50
2022/09/22 07:21:12;;;;;;;11.45;6.70;;;12.10;99.90;;;;;;5012950;28;22416;-51
2022/09/22 07:23:58;;;;;;;8.38;5.85;;;12.20;99.90;;;;;;5004175;28;20038;-51
2022/09/22 07:26:45;;;;;;;14.50;6.22;;;12.30;99.90;;;;;;5008735;28;20030;-51
2022/09/22 07:29:31;;;;;;;7.95;5.97;;;12.30;99.90;;;;;;5001846;28;20031;-50
2022/09/22 07:32:20;;;;;;;16.65;6.93;;;12.30;99.90;;;;;;4998972;28;20030;-55
2022/09/22 07:35:06;;;;;;;9.60;7.03;;;12.30;99.90;;;;;;5000042;28;20026;-50
2022/09/22 07:37:55;;;;;;;8.32;6.50;;;12.30;99.90;;;;;;5012986;28;20026;-50
2022/09/22 07:40:51;;;;;;;8.63;5.38;;;12.10;99.90;;;;;;5013662;28;20026;-52
2022/09/22 07:43:37;;;;;;;;;;;12.20;99.90;;;;;;5000918;28;20069;-52
2022/09/22 07:46:23;;;;;;;9.27;6.85;;;12.20;99.90;;;;;;5011866;28;19936;-55
2022/09/22 07:49:09;;;;;;;11.48;8.77;;;12.40;99.90;;;;;;5002908;28;20077;-51
2022/09/22 07:52:01;;;;;;;15.35;9.10;;;12.40;99.90;;;;;;5012856;28;20101;-53
2022/09/22 07:54:47;;;;;;;9.85;7.22;;;12.50;99.90;;;;;;4998984;28;20110;-52
2022/09/22 07:57:33;;;;;;;8.88;6.78;;;12.50;99.90;;;;;;5006671;28;20032;-53
2022/09/22 08:00:19;;;;;;;9.48;6.65;;;12.60;99.90;;;;;;4999445;28;20035;-57
2022/09/22 08:03:07;;;;;;;11.20;6.72;;;12.70;99.90;;;;;;4996806;28;20034;-49
2022/09/22 08:06:01;;;;;;;12.05;6.78;;;12.80;99.90;;;;;;5008196;28;20026;-56
2022/09/22 08:08:52;;;;;;;11.68;6.82;;;12.90;99.90;;;;;;5012802;28;20072;-54
2022/09/22 08:11:39;;;;;;;9.88;6.38;;;13.10;99.90;;;;;;4994053;28;20042;-51
2022/09/22 08:14:26;;;;;;;10.98;7.00;;;13.30;99.90;;;;;;5011564;28;20083;-55
2022/09/22 08:17:12;;;;;;;9.30;6.28;;;13.50;99.90;;;;;;5011805;28;20533;-52
2022/09/22 08:20:01;;;;;;;13.95;7.05;;;13.70;99.90;;;;;;5000713;28;20402;-50
2022/09/22 08:22:52;;;;;;;13.23;6.97;;;13.80;99.90;;;;;;5005842;28;20600;-52
2022/09/22 08:25:39;;;;;;;9.93;6.50;;;13.80;99.90;;;;;;4999609;28;20026;-50
2022/09/22 08:28:25;;;;;;;12.02;7.45;;;13.90;99.90;;;;;;5011510;28;20053;-51
2022/09/22 08:31:11;;;;;;;8.70;7.10;;;13.90;99.80;;;;;;4991804;28;20040;-57
2022/09/22 08:33:58;;;;;;;10.15;7.15;;;13.90;99.60;;;;;;4993406;28;20056;-54
2022/09/22 08:36:47;;;;;;;9.05;6.68;;;14.00;99.80;;;;;;4994859;28;20034;-53
2022/09/22 08:39:35;;;;;;;9.70;6.80;;;14.10;99.40;;;;;;5012037;28;20560;-57
2022/09/22 08:42:22;;;;;;;11.73;7.25;;;14.20;99.30;;;;;;5004454;28;20559;-59
2022/09/22 08:45:33;;;;;;;9.50;7.47;;;14.30;99.10;;;;;;5009530;28;20030;-60
2022/09/22 08:51:50;;;;;;;19.77;7.18;;;14.50;98.80;;;;;;5010972;28;20033;-59
2022/09/22 08:54:37;;;;;;;10.45;6.75;;;14.60;98.70;;;;;;5012928;28;20073;-60
2022/09/22 08:57:45;;;;;;;7.78;6.10;;;14.60;98.70;;;;;;5012203;28;20101;-56
2022/09/22 09:01:14;;;;;;;8.38;5.30;;;14.50;99.20;;;;;;4991756;28;20014;-59
2022/09/22 09:04:25;;;;;;;9.32;4.75;;;14.80;98.70;;;;;;4977618;28;20034;-56
2022/09/22 09:07:29;;;;;;;11.65;4.55;;;14.90;98.60;;;;;;4978167;28;20040;-58
2022/09/22 09:10:48;;;;;;;5.18;4.32;;;14.90;98.40;;;;;;4992611;28;20541;-57
2022/09/22 09:14:20;;;;;;;9.75;3.78;;;15.00;98.30;;;;;;4991212;28;20026;-55
2022/09/22 09:17:29;;;;;;;5.93;3.97;;;15.00;97.90;;;;;;4987246;28;20049;-53
2022/09/22 09:20:17;;;;;;;5.90;4.20;;;15.00;97.70;;;;;;4991729;28;20063;-53
2022/09/22 09:23:11;;;;;;;6.90;4.57;;;15.00;97.30;;;;;;4991576;28;20026;-60
2022/09/22 09:25:57;;;;;;;5.45;4.05;;;15.20;97.30;;;;;;4992053;28;20037;-59
2022/09/22 09:28:49;;;;;;;7.15;4.70;;;15.30;97.10;;;;;;4977778;28;20114;-60
2022/09/22 09:31:48;;;;;;;5.38;4.03;;;15.30;97.20;;;;;;4990033;28;20034;-59
2022/09/22 09:34:33;;;;;;;4.20;3.53;;;15.30;97.00;;;;;;4991252;28;20058;-62
2022/09/22 09:37:20;;;;;;;4.43;3.90;;;15.40;96.40;;;;;;4991526;28;20121;-59
2022/09/22 09:40:14;;;;;;;8.68;4.38;;;15.60;96.20;;;;;;4991735;28;20109;-61
2022/09/22 09:43:04;;;;;;;4.72;4.15;;;15.60;96.00;;;;;;5005301;28;20032;-60
2022/09/22 09:46:25;;;;;;;5.95;3.78;;;15.60;95.50;;;;;;5011228;28;20034;-59
2022/09/22 09:49:16;;;;;;;6.85;3.80;;;15.60;95.40;;;;;;5008926;28;20116;-59
2022/09/22 09:52:09;;;;;;;6.53;3.95;;;15.60;94.90;;;;;;4977650;28;20034;-58
2022/09/22 09:54:55;;;;;;;3.97;3.22;;;15.70;94.40;;;;;;4992552;28;20073;-54
2022/09/22 10:00:29;;;;;;;6.00;3.22;;;15.80;93.90;;;;;;4992339;28;20116;-59
2022/09/22 10:01:17;;;;;;;4.55;3.47;;;15.90;92.70;;;;;;4990855;28;20035;-57
2022/09/22 10:04:03;;;;;;;7.45;3.88;;;16.00;92.80;;;;;;4992909;28;20023;-58
2022/09/22 10:06:49;;;;;;;6.18;3.58;;;16.10;92.70;;;;;;4978817;28;20102;-56
2022/09/22 10:09:35;;;;;;;6.05;3.58;;;16.30;92.60;;;;;;4992694;28;20023;-55
2022/09/22 10:12:32;;;;;;;5.32;3.30;;;16.40;92.30;;;;;;5005709;28;20034;-56
2022/09/22 10:15:23;;;;;;;4.50;2.97;;;16.60;91.60;;;;;;4992993;28;20029;-57
2022/09/22 10:18:39;;;;;;;5.30;3.15;;;16.60;91.30;;;;;;4991506;28;20459;-57
2022/09/22 10:21:26;;;;;;;6.57;2.83;;;16.70;90.30;;;;;;4997672;28;20038;-57
2022/09/22 10:24:28;;;;;;;4.07;3.00;;;16.60;90.70;;;;;;5002730;28;20494;-60
2022/09/22 10:27:20;;;;;;;3.90;3.10;;;16.80;92.40;;;;;;4991104;28;20046;-56
2022/09/22 10:30:21;;;;;;;6.90;3.30;;;17.10;91.80;;;;;;5003539;28;20026;-59
2022/09/22 10:33:20;;;;;;;3.17;2.88;;;17.20;90.00;;;;;;5010323;28;20037;-59
2022/09/22 10:36:10;;;;;;;4.75;2.80;;;17.00;89.40;;;;;;4991860;28;20026;-56
2022/09/22 10:38:56;;;;;;;4.13;3.30;;;17.00;89.40;;;;;;5008750;28;20038;-57
2022/09/22 10:41:44;;;;;;;4.65;3.00;;;16.50;89.40;;;;;;5013732;28;20042;-52
2022/09/22 10:44:31;;;;;;;3.83;3.13;;;16.50;89.90;;;;;;4997029;28;20080;-56
2022/09/22 10:47:29;;;;;;;3.53;2.60;;;16.80;89.10;;;;;;4994699;28;20061;-58
2022/09/22 10:50:28;;;;;;;3.95;2.78;;;17.00;89.20;;;;;;5005042;28;20030;-57
2022/09/22 10:53:40;;;;;;;11.80;4.38;;;17.20;87.90;;;;;;5007615;28;20031;-57
2022/09/22 10:56:36;;;;;;;4.22;2.58;;;17.40;88.30;;;;;;5012761;28;20088;-58
2022/09/22 10:59:56;;;;;;;3.78;2.05;;;17.30;85.10;;;;;;5008085;28;20018;-59
2022/09/22 11:02:48;;;;;;;2.92;2.22;;;17.10;82.50;;;;;;5013047;28;20117;-59
2022/09/22 11:12:52;;;;;;;4.72;2.63;;;16.90;81.10;;;;;;4977336;28;20050;-57
2022/09/22 11:15:42;;;;;;;2.30;2.10;;;17.20;80.40;;;;;;5009297;28;20140;-59
2022/09/22 11:18:54;;;;;;;4.68;2.75;;;17.30;80.20;;;;;;5013282;28;20564;-58
2022/09/22 11:22:15;;;;;;;3.00;2.25;;;17.50;79.00;;;;;;5003845;28;20442;-57
2022/09/22 11:25:13;;;;;;;5.05;2.20;;;17.50;79.10;;;;;;4998929;28;20018;-58
2022/09/22 11:28:02;;;;;;;3.47;2.15;;;17.60;79.60;;;;;;5013358;28;20025;-55
2022/09/22 11:30:50;;;;;;;9.88;3.22;;;17.70;79.90;;;;;;4993846;28;20112;-54
2022/09/22 11:33:36;;;;;;;4.47;2.47;;;17.80;80.40;;;;;;5012954;28;20026;-59
2022/09/22 11:36:37;;;;;;;6.82;3.00;;;17.80;79.00;;;;;;5012854;28;20038;-58
2022/09/22 11:39:45;;;;;;;4.70;3.88;;;17.60;78.90;;;;;;4993894;28;20092;-58
2022/09/22 11:43:18;;;;;;;4.50;2.10;;;17.50;79.00;;;;;;4992687;28;20027;-54
2022/09/22 11:46:13;;;;;;;3.75;1.98;;;17.30;77.80;;;;;;4993572;28;20088;-56
2022/09/22 11:49:02;;;;;;;4.15;1.90;;;16.80;77.60;;;;;;5010662;28;20490;-58
2022/09/22 11:52:12;;;;;;;4.93;2.65;;;16.60;78.40;;;;;;5008091;28;20034;-56
2022/09/22 11:55:32;;;;;;;4.72;2.17;;;16.60;78.50;;;;;;5012156;28;20484;-55
2022/09/22 11:58:23;;;;;;;2.85;1.83;;;16.60;77.30;;;;;;4995837;28;20062;-56
2022/09/22 12:01:14;;;;;;;3.00;2.10;;;16.30;77.30;;;;;;4992650;28;20030;-58
2022/09/22 12:04:10;;;;;;;2.97;2.33;;;16.20;77.10;;;;;;4993250;28;20026;-60
2022/09/22 12:07:00;;;;;;;3.08;2.20;;;16.20;76.80;;;;;;4992990;28;20032;-58
2022/09/22 12:09:55;;;;;;;4.60;2.40;;;16.20;77.20;;;;;;4988386;28;20022;-56
2022/09/22 12:12:47;;;;;;;6.20;2.55;;;16.30;78.10;;;;;;5011826;28;20130;-58
2022/09/22 12:15:42;;;;;;;6.15;2.30;;;16.60;78.60;;;;;;4996490;28;20503;-54
2022/09/22 12:19:00;;;;;;;4.28;2.55;;;16.90;76.70;;;;;;4995718;28;20042;-56
2022/09/22 12:21:49;;;;;;;6.03;2.55;;;17.30;76.00;;;;;;4978501;28;20030;-58
2022/09/22 12:24:35;;;;;;;3.83;2.63;;;17.40;75.20;;;;;;4993427;28;20073;-60
2022/09/22 12:27:26;;;;;;;4.18;2.40;;;17.50;74.20;;;;;;4978679;28;20050;-59
2022/09/22 12:30:21;;;;;;;3.38;1.95;;;17.70;73.80;;;;;;5000466;28;20032;-58
2022/09/22 12:33:14;;;;;;;2.42;2.10;;;17.80;73.60;;;;;;4996414;28;20045;-59
2022/09/22 12:36:01;;;;;;;6.22;2.80;;;18.10;73.50;;;;;;4992647;28;20099;-57
2022/09/22 12:38:48;;;;;;;7.43;3.10;;;18.40;73.10;;;;;;4994615;28;20054;-57
2022/09/22 12:41:48;;;;;;;4.00;2.55;;;18.60;73.90;;;;;;4996181;28;20092;-58
2022/09/22 12:44:48;;;;;;;3.08;2.10;;;18.70;71.80;;;;;;4997141;28;20034;-58
2022/09/22 12:47:39;;;;;;;3.72;2.20;;;18.70;70.50;;;;;;4997818;28;20457;-56
2022/09/22 12:50:30;;;;;;;4.35;1.80;;;18.60;70.00;;;;;;5003694;28;20386;-55
2022/09/22 12:53:24;;;;;;;2.30;1.80;;;18.20;70.40;;;;;;5014001;28;20095;-60
2022/09/22 12:56:44;;;;;;;3.80;2.40;;;18.20;70.80;;;;;;5013092;28;20089;-59
2022/09/22 12:59:39;;;;;;;2.38;2.00;;;18.40;71.20;;;;;;4996771;28;20031;-60
2022/09/22 13:02:30;;;;;;;3.40;2.28;;;18.70;72.80;;;;;;5008758;28;20030;-59
2022/09/22 13:05:25;;;;;;;2.80;2.00;;;19.00;69.40;;;;;;4994746;28;20026;-59
2022/09/22 13:08:17;;;;;;;2.75;2.10;;;19.00;69.40;;;;;;4993519;28;20030;-59
2022/09/22 13:11:06;;;;;;;2.70;2.08;;;18.40;69.90;;;;;;5005562;28;20038;-60
2022/09/22 13:13:52;;;;;;;2.88;1.90;;;18.40;70.30;;;;;;4989291;28;20517;-59
2022/09/22 13:16:38;;;;;;;8.65;2.80;;;18.60;70.70;;;;;;4997716;28;20026;-59
2022/09/22 13:19:24;;;;;;;8.80;2.78;;;18.90;69.60;;;;;;4997423;28;20026;-58
2022/09/22 13:22:18;;;;;;;2.92;2.33;;;19.10;70.40;;;;;;4996343;28;20022;-60
2022/09/22 13:25:33;;;;;;;2.28;2.08;;;19.30;69.90;;;;;;4997549;28;20490;-58
2022/09/22 13:28:26;;;;;;;4.65;2.13;;;19.50;69.30;;;;;;4979849;28;20042;-57
2022/09/22 13:31:14;;;;;;;3.53;2.10;;;19.70;69.10;;;;;;5010636;28;20095;-61
2022/09/22 13:34:26;;;;;;;2.80;1.98;;;19.80;70.80;;;;;;4990023;28;20037;-56
2022/09/22 13:37:20;;;;;;;3.15;1.85;;;19.20;68.90;;;;;;4995219;28;20041;-55
2022/09/22 13:40:09;;;;;;;2.03;1.90;;;18.50;70.40;;;;;;4999250;28;20022;-60
2022/09/22 13:42:59;;;;;;;7.15;3.40;;;18.30;70.90;;;;;;4979012;28;20045;-59
2022/09/22 13:45:45;;;;;;;15.30;4.28;;;18.80;71.20;;;;;;5010845;28;20041;-58
2022/09/22 13:48:35;;;;;;;6.03;3.70;;;19.40;71.70;;;;;;5000575;28;20038;-53
2022/09/22 13:51:23;;;;;;;3.80;2.80;;;20.00;70.90;;;;;;4991255;28;20035;-54
2022/09/22 13:54:19;;;;;;;5.00;2.83;;;20.30;68.10;;;;;;4997378;28;20032;-55
2022/09/22 13:57:17;;;;;;;9.38;4.28;;;20.60;68.70;;;;;;5005789;28;20116;-57
2022/09/22 14:00:05;;;;;;;11.82;5.25;;;20.80;68.40;;;;;;4996659;28;20060;-58
2022/09/22 14:02:54;;;;;;;3.53;2.33;;;21.00;67.40;;;;;;5006815;28;20142;-59
2022/09/22 14:05:40;;;;;;;4.07;2.30;;;20.70;65.80;;;;;;4993151;28;20497;-59
2022/09/22 14:08:31;;;;;;;4.93;3.35;;;20.40;66.30;;;;;;4991610;28;20034;-59
2022/09/22 14:11:20;;;;;;;6.60;2.70;;;20.80;66.50;;;;;;4993387;28;20030;-58
2022/09/22 14:14:21;;;;;;;3.58;2.53;;;21.10;66.00;;;;;;5006234;28;20477;-58
2022/09/22 14:17:13;;;;;;;5.57;4.13;;;21.10;65.50;;;;;;5010725;28;20073;-60
2022/09/22 14:20:01;;;;;;;6.15;3.22;;;21.10;64.90;;;;;;4995608;28;20022;-57
2022/09/22 14:22:47;;;;;;;6.80;2.70;;;21.20;64.70;;;;;;5013028;28;20058;-58
2022/09/22 14:25:33;;;;;;;3.65;2.33;;;21.80;63.80;;;;;;5002548;28;20057;-56
2022/09/22 14:28:23;;;;;;;4.63;2.05;;;21.70;62.00;;;;;;5000189;28;20093;-49
2022/09/22 14:31:15;;;;;;;5.05;3.63;;;21.50;61.80;;;;;;4994729;28;20042;-55
2022/09/22 14:34:02;;;;;;;4.22;2.30;;;21.50;62.80;;;;;;4995116;28;20026;-52
2022/09/22 14:36:50;;;;;;;2.70;2.50;;;21.40;61.90;;;;;;5014099;28;20057;-55
2022/09/22 14:39:40;;;;;;;2.88;1.98;;;21.00;62.70;;;;;;5014349;28;20109;-53
2022/09/22 14:42:29;;;;;;;1.80;1.70;;;20.50;63.20;;;;;;5001041;28;20035;-58
2022/09/22 14:45:19;;;;;;;2.10;1.90;;;20.60;62.80;;;;;;5007105;28;20056;-56
2022/09/22 14:48:11;;;;;;;2.88;1.90;;;20.80;61.90;;;;;;5005894;28;20482;-56
2022/09/22 14:51:04;;;;;;;2.38;1.95;;;21.10;61.30;;;;;;5014019;28;20034;-54
2022/09/22 14:53:56;;;;;;;5.25;4.25;;;21.20;61.30;;;;;;4994884;28;20096;-59
2022/09/22 14:56:43;;;;;;;4.85;2.40;;;20.70;62.00;;;;;;4994283;28;20030;-57
2022/09/22 15:02:41;;;;;;;3.35;2.40;;;19.70;64.40;;;;;;5006672;28;20034;-57
2022/09/22 15:05:32;;;;;;;6.75;3.95;;;20.40;65.10;;;;;;5006879;28;20041;-59